Home > Products > Valid Products > TAF

000
FTUS43 KDLH 090131 AAB
TAFDLH
TAF AMD
KDLH 090131Z 0902/0924 33013G21KT 6SM -SN BLSN SCT025 OVC040
      TEMPO 0902/0904 4SM -SN BLSN OVC025
     FM091100 33012G20KT P6SM SCT030 BKN050
     FM091500 35015G23KT P6SM SCT080=



000
FTUS43 KDLH 090130 AAA
TAFINL
TAF AMD
KINL 090130Z 0902/0924 32013G20KT 6SM -SN SCT025 OVC045
      TEMPO 0902/0905 3SM -SN BKN035 OVC050
     FM090500 33012KT 6SM -SN SCT025 BKN050
     FM091000 33010KT P6SM SCT050
     FM091400 34008KT P6SM SKC=



000
FTUS43 KDLH 082349
TAFHYR
TAF
KHYR 082349Z 0900/0924 33008G15KT 1SM -SN OVC020
      TEMPO 0900/0904 3SM -SN OVC025
     FM090400 35008G16KT 5SM -SN BKN025 OVC040
     FM091000 35006KT 5SM -SN BKN025
     FM091600 35007KT P6SM BKN030=



000
FTUS43 KDLH 082349
TAFINL
TAF
KINL 082349Z 0900/0924 32013G20KT 1 1/2SM -SN BLSN SCT025 OVC045
      TEMPO 0900/0904 4SM -SN OVC050
     FM090400 33012KT 5SM -SN SCT025 BKN050
     FM091000 33010KT P6SM SCT050
     FM091400 34008KT P6SM SKC=



000
FTUS43 KDLH 082349
TAFBRD
TAF
KBRD 082349Z 0900/0924 33016KT 4SM -SN BKN028 OVC040
      TEMPO 0900/0904 2SM -SN OVC025
     FM090900 34012KT P6SM SCT050
     FM091500 34012G20KT P6SM SCT050=



000
FTUS43 KDLH 082349
TAFDLH
TAF
KDLH 082349Z 0900/0924 33013G21KT 5SM -SN BLSN SCT025 OVC040
      TEMPO 0900/0902 2SM -SN BLSN OVC025
     FM091100 33012G20KT P6SM SCT030 BKN050
     FM091500 35015G23KT P6SM SCT080=



000
FTUS43 KDLH 082349
TAFDLH
TAF
KDLH 082349Z 0900/0924 33013G21KT 5SM -SN BLSN SCT025 OVC040
      TEMPO 0900/0902 2SM -SN BLSN OVC025
     FM091100 33012G20KT P6SM SCT030 BKN050
     FM091500 35015G23KT P6SM SCT080=



000
FTUS43 KDLH 082349
TAFBRD
TAF
KBRD 082349Z 0900/0924 33016KT 4SM -SN BKN028 OVC040
      TEMPO 0900/0904 2SM -SN OVC025
     FM090900 34012KT P6SM SCT050
     FM091500 34012G20KT P6SM SCT050=



000
FTUS43 KDLH 082349
TAFHYR
TAF
KHYR 082349Z 0900/0924 33008G15KT 1SM -SN OVC020
      TEMPO 0900/0904 3SM -SN OVC025
     FM090400 35008G16KT 5SM -SN BKN025 OVC040
     FM091000 35006KT 5SM -SN BKN025
     FM091600 35007KT P6SM BKN030=



000
FTUS43 KDLH 082349
TAFINL
TAF
KINL 082349Z 0900/0924 32013G20KT 1 1/2SM -SN BLSN SCT025 OVC045
      TEMPO 0900/0904 4SM -SN OVC050
     FM090400 33012KT 5SM -SN SCT025 BKN050
     FM091000 33010KT P6SM SCT050
     FM091400 34008KT P6SM SKC=



000
FTUS43 KDLH 082208 AAB
TAFDLH
TAF AMD
KDLH 082208Z 0822/0918 33016G24KT 5SM -SHSN BLSN SCT020 OVC040
      TEMPO 0822/0824 2SM -SN BLSN SCT017 BKN020 OVC050
     FM090100 34015G23KT P6SM SCT025 BKN040
      TEMPO 0901/0905 5SM BLSN BKN025
     FM090800 34012G20KT P6SM SCT030=



000
FTUS43 KDLH 082202 AAA
TAFHYR
TAF AMD
KHYR 082202Z 0822/0918 32009G16KT 3SM -SN BKN025 OVC035
      TEMPO 0822/0901 1 1/2SM -SHSN BKN018 OVC025
     FM090300 34008G16KT 6SM -SN BKN020 OVC035
     FM091000 34008G15KT P6SM -SN BKN025=



000
FTUS43 KDLH 082024 AAA
TAFBRD
TAF AMD
KBRD 082024Z 0820/0918 33016G25KT 5SM -SN BLSN BKN025 OVC035
      TEMPO 0820/0823 2SM -SN BLSN SCT025 OVC035
     FM082300 33014G21KT P6SM BKN030
     FM090600 33012G19KT P6SM SCT030
     FM091500 34010KT P6SM SCT025=



000
FTUS43 KDLH 082024 AAA
TAFBRD
TAF AMD
KBRD 082024Z 0820/0918 33016G25KT 5SM -SN BLSN BKN025 OVC035
      TEMPO 0820/0823 2SM -SN BLSN SCT025 OVC035
     FM082300 33014G21KT P6SM BKN030
     FM090600 33012G19KT P6SM SCT030
     FM091500 34010KT P6SM SCT025=



000
FTUS43 KDLH 082023 AAA
TAFINL
TAF AMD
KINL 082023Z 0820/0918 33014G20KT 5SM -SN BLSN SCT020 OVC030
      TEMPO 0820/0823 1SM -SN BLSN BKN020 OVC030
     FM082300 33013G19KT 6SM -SN SCT015 BKN030
     FM090200 33010G17KT P6SM SCT020 BKN035
     FM090600 34010KT P6SM SCT025=



000
FTUS43 KDLH 081733
TAFDLH
TAF
KDLH 081733Z 0818/0918 33016G24KT 6SM -SHSN BLSN SCT020 BKN040
      TEMPO 0818/0820 3SM -SN BLSN BKN025
     FM082000 33015G23KT 6SM -SHSN BLSN SCT015 BKN030
     FM090100 34015G23KT P6SM SCT030 BKN040
      TEMPO 0901/0905 5SM BLSN
     FM090800 34012G20KT P6SM SCT030=



000
FTUS43 KDLH 081733
TAFINL
TAF
KINL 081733Z 0818/0918 33014G20KT 6SM -SN BLSN SCT020 BKN040
      TEMPO 0818/0821 2SM -SN BLSN BKN020 OVC040
     FM082100 33013G19KT P6SM -SN SCT015 BKN030
     FM090200 33010G17KT P6SM SCT020 BKN035
     FM090600 34010KT P6SM SCT025=



000
FTUS43 KDLH 081733
TAFHYR
TAF
KHYR 081733Z 0818/0918 32009G15KT 5SM -SN BKN018 OVC035
      TEMPO 0818/0820 2SM -SN SCT018 OVC030
     FM082000 32010G17KT 5SM -SN BKN020 OVC035
     FM090300 34008G16KT 6SM -SN BKN020 OVC035
     FM091000 34008G15KT P6SM -SN BKN025=



000
FTUS43 KDLH 081733
TAFBRD
TAF
KBRD 081733Z 0818/0918 33016G25KT 6SM -SN BLSN BKN025 OVC035
      TEMPO 0818/0820 2SM -SN BLSN SCT025 OVC035
     FM082200 33014G21KT P6SM BKN030
     FM090600 33012G19KT P6SM SCT030
     FM091500 34010KT P6SM SCT025=



000
FTUS43 KDLH 081631 AAC
TAFDLH
TAF AMD
KDLH 081631Z 0817/0912 33015G23KT 6SM -SN BLSN SCT020 BKN035
      TEMPO 0817/0819 2SM -SN BLSN BKN020
     FM081900 33014G22KT 6SM -SHSN BLSN SCT015 BKN030
     FM090000 34012G22KT P6SM BKN030
     FM090800 34010G20KT P6SM SCT030=



000
FTUS43 KDLH 081612 AAC
TAFINL
TAF AMD
KINL 081612Z 0816/0912 33014G23KT 6SM -SN BLSN SCT025 BKN040
      TEMPO 0816/0818 2SM -SN BLSN BKN025
     FM081900 33013G19KT 6SM -SN BR BKN025
     FM082200 33012G20KT P6SM BKN025
     FM090600 34012KT P6SM SCT025=



000
FTUS43 KDLH 081541 AAA
TAFHYR
TAF AMD
KHYR 081541Z 0816/0912 32009G15KT 4SM -SN BKN017 OVC035
      TEMPO 0816/0820 1 1/2SM -SN SCT017 OVC030
     FM082000 32010G17KT 5SM -SN BKN025 OVC035
     FM090000 34012G20KT 4SM -SN OVC020
     FM091000 34012KT P6SM BKN025=



000
FTUS43 KDLH 081528 AAC
TAFDLH
TAF AMD
KDLH 081528Z 0815/0912 33015G23KT 2SM -SN BLSN SCT019 OVC035
      TEMPO 0815/0818 3/4SM -SN BLSN BKN019
     FM081800 33014G22KT 4SM -SHSN BLSN SCT015 BKN030
     FM090000 34012G22KT P6SM BKN030
     FM090800 34010G20KT P6SM SCT030=



000
FTUS43 KDLH 081528 AAC
TAFDLH
TAF AMD
KDLH 081528Z 0815/0912 33015G23KT 2SM -SN BLSN SCT019 OVC035
      TEMPO 0815/0818 3/4SM -SN BLSN BKN019
     FM081800 33014G22KT 4SM -SHSN BLSN SCT015 BKN030
     FM090000 34012G22KT P6SM BKN030
     FM090800 34010G20KT P6SM SCT030=



000
FTUS43 KDLH 081503 AAB
TAFINL
TAF AMD
KINL 081503Z 0815/0912 32012G19KT 4SM -SN BLSN SCT025 OVC040
      TEMPO 0815/0818 1SM -SN BLSN BKN020
     FM081900 33011G17KT 6SM -SN BR BKN025
     FM082200 33012G20KT P6SM BKN025
     FM090600 34012KT P6SM SCT025=



000
FTUS43 KDLH 081503 AAB
TAFINL
TAF AMD
KINL 081503Z 0815/0912 32012G19KT 4SM -SN BLSN SCT025 OVC040
      TEMPO 0815/0818 1SM -SN BLSN BKN020
     FM081900 33011G17KT 6SM -SN BR BKN025
     FM082200 33012G20KT P6SM BKN025
     FM090600 34012KT P6SM SCT025=



000
FTUS43 KDLH 081407 AAA
TAFBRD
TAF AMD
KBRD 081407Z 0814/0912 33015G23KT 5SM -SN BLSN SCT025 OVC040
      TEMPO 0814/0816 3/4SM -SN BLSN BKN025
     FM082200 33012G20KT P6SM BKN025
     FM090600 34012KT P6SM SCT025=



000
FTUS43 KDLH 081322 AAA
TAFINL
TAF AMD
KINL 081322Z 0813/0912 32008G16KT 5SM -SN BLSN SCT025 OVC040
      TEMPO 0814/0818 2SM -SN BLSN BKN025
     FM082200 33012G20KT P6SM BKN025
     FM090600 34012KT P6SM SCT025=



000
FTUS43 KDLH 081319 AAA
TAFDLH
TAF AMD
KDLH 081319Z 0813/0912 33015G26KT 5SM -SN BLSN SCT015 OVC035
      TEMPO 0814/0818 1 1/2SM -SN BLSN BKN018
     FM090000 34012G22KT P6SM BKN030
     FM090800 34010G20KT P6SM SCT030=



000
FTUS43 KDLH 081152
TAFDLH
TAF
KDLH 081152Z 0812/0912 33015G26KT 5SM -SN BLSN SCT015 OVC035
      TEMPO 0812/0816 2SM -SN BLSN BKN018
     FM090000 34012G22KT P6SM BKN025
     FM090800 34010G20KT P6SM SCT025=



000
FTUS43 KDLH 081152
TAFINL
TAF
KINL 081152Z 0812/0912 32012G22KT 5SM -SN BLSN SCT025 OVC040
      TEMPO 0812/0816 2SM -SN BLSN BKN025
     FM082200 33012G20KT P6SM BKN025
     FM090600 34012KT P6SM SCT025=



000
FTUS43 KDLH 081152
TAFBRD
TAF
KBRD 081152Z 0812/0912 32015G25KT 5SM -SN BLSN SCT025 OVC040
      TEMPO 0812/0816 2SM -SN BLSN BKN025
     FM082200 33012G20KT P6SM BKN025
     FM090600 34012KT P6SM SCT025=



000
FTUS43 KDLH 081152
TAFHYR
TAF
KHYR 081152Z 0812/0912 32008G18KT 4SM -SN SCT015 OVC025
      TEMPO 0812/0816 1 1/2SM -SN OVC012
     FM090000 34012G20KT 4SM -SN OVC020
     FM091000 34012KT P6SM BKN025=



000
FTUS43 KDLH 081152
TAFHYR
TAF
KHYR 081152Z 0812/0912 32008G18KT 4SM -SN SCT015 OVC025
      TEMPO 0812/0816 1 1/2SM -SN OVC012
     FM090000 34012G20KT 4SM -SN OVC020
     FM091000 34012KT P6SM BKN025=



000
FTUS43 KDLH 081152
TAFINL
TAF
KINL 081152Z 0812/0912 32012G22KT 5SM -SN BLSN SCT025 OVC040
      TEMPO 0812/0816 2SM -SN BLSN BKN025
     FM082200 33012G20KT P6SM BKN025
     FM090600 34012KT P6SM SCT025=



000
FTUS43 KDLH 081152
TAFBRD
TAF
KBRD 081152Z 0812/0912 32015G25KT 5SM -SN BLSN SCT025 OVC040
      TEMPO 0812/0816 2SM -SN BLSN BKN025
     FM082200 33012G20KT P6SM BKN025
     FM090600 34012KT P6SM SCT025=



000
FTUS43 KDLH 081152
TAFDLH
TAF
KDLH 081152Z 0812/0912 33015G26KT 5SM -SN BLSN SCT015 OVC035
      TEMPO 0812/0816 2SM -SN BLSN BKN018
     FM090000 34012G22KT P6SM BKN025
     FM090800 34010G20KT P6SM SCT025=



000
FTUS43 KDLH 080849 AAC
TAFDLH
TAF AMD
KDLH 080849Z 0809/0906 32015G25KT 5SM -SN BLSN SCT015 OVC035
      TEMPO 0809/0813 1SM -SN BLSN BKN012 OVC025
     FM081600 33018G28KT 6SM -SN BLSN BKN025
     FM090000 34015G25KT P6SM BKN040=



000
FTUS43 KDLH 080816 AAB
TAFDLH
TAF AMD
KDLH 080816Z 0808/0906 32015G25KT 6SM -SN BLSN SCT015 OVC035
      TEMPO 0808/0812 3SM -SN BLSN BKN012 OVC025
     FM081600 33018G28KT 6SM -SN BLSN BKN025
     FM090000 34015G25KT P6SM BKN040=



000
FTUS43 KDLH 080811 AAA
TAFINL
TAF AMD
KINL 080811Z 0808/0906 32013G20KT 5SM -SN BLSN SCT025 OVC040
      TEMPO 0808/0812 2SM -SN OVC020
     FM081400 34014G22KT P6SM -SN SCT025 OVC050
     FM082000 32012G20KT P6SM BKN050
     FM090100 33012KT P6SM SCT050=



000
FTUS43 KDLH 080810 AAA
TAFBRD
TAF AMD
KBRD 080810Z 0808/0906 33017G27KT 6SM -SN BLSN SCT025 OVC040
      TEMPO 0808/0812 4SM -SN BLSN BKN020
     FM081600 34016G25KT P6SM -SN SCT025 OVC035
     FM082100 33018G25KT P6SM BKN050
     FM090100 33011KT P6SM SCT050=



000
FTUS43 KDLH 080809 AAA
TAFHYR
TAF AMD
KHYR 080809Z 0808/0906 31010KT 5SM -SN BR BKN012 OVC025
      TEMPO 0808/0812 2SM -SN BR OVC007
     FM081600 34012G20KT 4SM -SN OVC020
     FM090300 34012G18KT P6SM -SN OVC035=



000
FTUS43 KDLH 080535
TAFDLH
TAF
KDLH 080535Z 0806/0906 32016G26KT 4SM -SN BLSN OVC015
      TEMPO 0806/0810 1 1/2SM -SN BLSN
     FM081600 33018G28KT 4SM -SN BLSN OVC020
     FM082200 34018G24KT P6SM -SN BKN035
     FM090200 34015G25KT P6SM BKN050=



000
FTUS43 KDLH 080535
TAFBRD
TAF
KBRD 080535Z 0806/0906 33017G28KT 4SM -SN BLSN SCT025 OVC035
      TEMPO 0806/0810 2SM -SN BLSN BKN025
     FM081600 34016G25KT P6SM -SN SCT025 OVC035
     FM082100 33018G25KT P6SM BKN050
     FM090100 33011KT P6SM SCT050=



000
FTUS43 KDLH 080535
TAFHYR
TAF
KHYR 080535Z 0806/0906 30010KT 5SM -SN BR OVC012
      TEMPO 0806/0810 2SM -SN BR OVC020
     FM081600 34012G20KT 4SM -SN OVC020
     FM090300 34012G18KT P6SM -SN OVC035=



000
FTUS43 KDLH 080535
TAFINL
TAF
KINL 080535Z 0806/0906 31013G20KT 4SM -SN OVC035
      TEMPO 0806/0810 1 1/2SM -SN OVC018
     FM081600 34014G22KT P6SM -SN SCT025 OVC035
     FM082000 32012G20KT P6SM BKN050
     FM090100 33012KT P6SM SCT050=



000
FTUS43 KDLH 080535
TAFBRD
TAF
KBRD 080535Z 0806/0906 33017G28KT 4SM -SN BLSN SCT025 OVC035
      TEMPO 0806/0810 2SM -SN BLSN BKN025
     FM081600 34016G25KT P6SM -SN SCT025 OVC035
     FM082100 33018G25KT P6SM BKN050
     FM090100 33011KT P6SM SCT050=



000
FTUS43 KDLH 080535
TAFINL
TAF
KINL 080535Z 0806/0906 31013G20KT 4SM -SN OVC035
      TEMPO 0806/0810 1 1/2SM -SN OVC018
     FM081600 34014G22KT P6SM -SN SCT025 OVC035
     FM082000 32012G20KT P6SM BKN050
     FM090100 33012KT P6SM SCT050=



000
FTUS43 KDLH 080535
TAFHYR
TAF
KHYR 080535Z 0806/0906 30010KT 5SM -SN BR OVC012
      TEMPO 0806/0810 2SM -SN BR OVC020
     FM081600 34012G20KT 4SM -SN OVC020
     FM090300 34012G18KT P6SM -SN OVC035=



000
FTUS43 KDLH 080535
TAFDLH
TAF
KDLH 080535Z 0806/0906 32016G26KT 4SM -SN BLSN OVC015
      TEMPO 0806/0810 1 1/2SM -SN BLSN
     FM081600 33018G28KT 4SM -SN BLSN OVC020
     FM082200 34018G24KT P6SM -SN BKN035
     FM090200 34015G25KT P6SM BKN050=



000
FTUS43 KDLH 080409 AAB
TAFINL
TAF AMD
KINL 080409Z 0804/0824 31013G22KT 1 1/2SM -SN OVC018
      TEMPO 0804/0807 3SM -SN SCT019 BKN025
     FM080900 34014G20KT 4SM -SN BLSN OVC015
     FM081600 34012G18KT P6SM -SN SCT025 OVC035
     FM082000 32011KT P6SM BKN050=



000
FTUS43 KDLH 080409 AAB
TAFINL
TAF AMD
KINL 080409Z 0804/0824 31013G22KT 1 1/2SM -SN OVC018
      TEMPO 0804/0807 3SM -SN SCT019 BKN025
     FM080900 34014G20KT 4SM -SN BLSN OVC015
     FM081600 34012G18KT P6SM -SN SCT025 OVC035
     FM082000 32011KT P6SM BKN050=



000
FTUS43 KDLH 080249 AAA
TAFINL
TAF AMD
KINL 080249Z 0803/0824 35013KT P6SM OVC019
      TEMPO 0803/0807 3SM -SN SCT019 BKN025
     FM080900 34014G20KT 4SM -SN BLSN OVC015
     FM081600 34012G18KT P6SM -SN SCT025 OVC035
     FM082000 32011KT P6SM BKN050=



000
FTUS43 KDLH 080249 AAA
TAFINL
TAF AMD
KINL 080249Z 0803/0824 35013KT P6SM OVC019
      TEMPO 0803/0807 3SM -SN SCT019 BKN025
     FM080900 34014G20KT 4SM -SN BLSN OVC015
     FM081600 34012G18KT P6SM -SN SCT025 OVC035
     FM082000 32011KT P6SM BKN050=



000
FTUS43 KDLH 080247 AAB
TAFDLH
TAF AMD
KDLH 080247Z 0803/0824 32017G26KT 2SM -SN BLSN OVC014
     FM080900 32017G27KT 5SM -SN BLSN OVC020
     FM081600 33016G26KT P6SM -SN SCT025 OVC035=



000
FTUS43 KDLH 080127 AAB
TAFDLH
TAF AMD
KDLH 080127Z 0801/0824 31017G25KT 1SM -SN BR OVC013
     FM080400 32018G28KT 2SM -SN BLSN OVC015
     FM080900 32017G27KT 5SM -SN BLSN OVC020
     FM081600 33016G26KT P6SM -SN SCT025 OVC035=



000
FTUS43 KDLH 080127 AAB
TAFDLH
TAF AMD
KDLH 080127Z 0801/0824 31017G25KT 1SM -SN BR OVC013
     FM080400 32018G28KT 2SM -SN BLSN OVC015
     FM080900 32017G27KT 5SM -SN BLSN OVC020
     FM081600 33016G26KT P6SM -SN SCT025 OVC035=



000
FTUS43 KDLH 080127 AAA
TAFBRD
TAF AMD
KBRD 080127Z 0801/0824 32014G21KT 2SM -SN FEW024 BKN030 OVC045
     FM080900 33018G28KT 4SM -SN BLSN OVC020
     FM081600 34016G25KT P6SM -SN SCT025 OVC035
     FM082100 33018G25KT P6SM BKN050=



000
FTUS43 KDLH 080127 AAA
TAFBRD
TAF AMD
KBRD 080127Z 0801/0824 32014G21KT 2SM -SN FEW024 BKN030 OVC045
     FM080900 33018G28KT 4SM -SN BLSN OVC020
     FM081600 34016G25KT P6SM -SN SCT025 OVC035
     FM082100 33018G25KT P6SM BKN050=



000
FTUS43 KDLH 080047 AAA
TAFDLH
TAF AMD
KDLH 080047Z 0801/0824 32018G26KT 2SM -SN BR OVC015
     FM080200 32018G28KT 2SM -SN BLSN OVC015
     FM080900 32017G27KT 5SM -SN BLSN OVC020
     FM081600 33016G26KT P6SM -SN SCT025 OVC035=



000
FTUS43 KDLH 072338
TAFDLH
TAF
KDLH 072338Z 0800/0824 31015G25KT 4SM -SN BR OVC012
     FM080200 32018G28KT 2SM -SN BLSN OVC015
     FM080900 32017G27KT 5SM -SN BLSN OVC020
     FM081600 33016G26KT P6SM -SN SCT025 OVC035=



000
FTUS43 KDLH 072338
TAFDLH
TAF
KDLH 072338Z 0800/0824 31015G25KT 4SM -SN BR OVC012
     FM080200 32018G28KT 2SM -SN BLSN OVC015
     FM080900 32017G27KT 5SM -SN BLSN OVC020
     FM081600 33016G26KT P6SM -SN SCT025 OVC035=



000
FTUS43 KDLH 072338
TAFBRD
TAF
KBRD 072338Z 0800/0824 30021G29KT 3/4SM -SN BR OVC021
     FM080900 33018G28KT 4SM -SN BLSN OVC020
     FM081600 34016G25KT P6SM -SN SCT025 OVC035
     FM082100 33018G25KT P6SM BKN050=



000
FTUS43 KDLH 072338
TAFHYR
TAF
KHYR 072338Z 0800/0824 24011KT 1SM -SN BR BKN006 OVC011
     FM080300 29014G22KT 3SM -SN BLSN OVC015
     FM080900 32014G22KT 4SM -SN BLSN OVC015
     FM081600 34012G20KT 5SM -SN OVC025=



000
FTUS43 KDLH 072338
TAFBRD
TAF
KBRD 072338Z 0800/0824 30021G29KT 3/4SM -SN BR OVC021
     FM080900 33018G28KT 4SM -SN BLSN OVC020
     FM081600 34016G25KT P6SM -SN SCT025 OVC035
     FM082100 33018G25KT P6SM BKN050=



000
FTUS43 KDLH 072338
TAFINL
TAF
KINL 072338Z 0800/0824 32014G21KT 1SM -SN BR OVC008
     FM080900 34014G20KT 4SM -SN BLSN OVC015
     FM081600 34012G18KT P6SM -SN SCT025 OVC035
     FM082000 32011KT P6SM BKN050=



000
FTUS43 KDLH 072338
TAFHYR
TAF
KHYR 072338Z 0800/0824 24011KT 1SM -SN BR BKN006 OVC011
     FM080300 29014G22KT 3SM -SN BLSN OVC015
     FM080900 32014G22KT 4SM -SN BLSN OVC015
     FM081600 34012G20KT 5SM -SN OVC025=



000
FTUS43 KDLH 072338
TAFINL
TAF
KINL 072338Z 0800/0824 32014G21KT 1SM -SN BR OVC008
     FM080900 34014G20KT 4SM -SN BLSN OVC015
     FM081600 34012G18KT P6SM -SN SCT025 OVC035
     FM082000 32011KT P6SM BKN050=



000
FTUS43 KDLH 072200 AAD
TAFDLH
TAF AMD
KDLH 072200Z 0722/0818 30015G23KT 2SM -SN BR OVC010
     FM080200 32018G28KT 4SM -SN BLSN OVC015
     FM080900 32015G25KT 6SM -SN BLSN OVC020
     FM081600 33015G25KT P6SM -SN SCT025 OVC035=



000
FTUS43 KDLH 072122 AAC
TAFDLH
TAF AMD
KDLH 072122Z 0721/0818 29012G20KT 1SM -SN BR OVC007
     FM072300 30015G24KT 1SM -SN BLSN OVC010
     FM080200 32018G28KT 4SM -SN BLSN OVC015
     FM080900 32015G25KT 6SM -SN BLSN OVC020
     FM081600 33015G25KT P6SM -SN SCT025 OVC035=



000
FTUS43 KDLH 072045 AAB
TAFHYR
TAF AMD
KHYR 072045Z 0721/0818 25009KT 2SM -SN OVC015
     FM072200 26012KT 3SM -SN OVC015
     FM080300 29014G22KT 3SM -SN BLSN OVC015
     FM080900 32014G22KT 4SM -SN BLSN OVC015
     FM081600 34012G20KT P6SM -SN OVC025=



000
FTUS43 KDLH 072045 AAB
TAFHYR
TAF AMD
KHYR 072045Z 0721/0818 25009KT 2SM -SN OVC015
     FM072200 26012KT 3SM -SN OVC015
     FM080300 29014G22KT 3SM -SN BLSN OVC015
     FM080900 32014G22KT 4SM -SN BLSN OVC015
     FM081600 34012G20KT P6SM -SN OVC025=



000
FTUS43 KDLH 072044 AAB
TAFBRD
TAF AMD
KBRD 072044Z 0721/0818 30018G29KT 1 1/2SM -SN SCT020 OVC025
     FM072200 31021G34KT 3SM -SN BLSN OVC020
     FM080900 33018G28KT 6SM -SN BLSN OVC020
     FM081600 34016G25KT P6SM -SN SCT025 OVC035=



000
FTUS43 KDLH 072044 AAB
TAFBRD
TAF AMD
KBRD 072044Z 0721/0818 30018G29KT 1 1/2SM -SN SCT020 OVC025
     FM072200 31021G34KT 3SM -SN BLSN OVC020
     FM080900 33018G28KT 6SM -SN BLSN OVC020
     FM081600 34016G25KT P6SM -SN SCT025 OVC035=



000
FTUS43 KDLH 072021 AAA
TAFHYR
TAF AMD
KHYR 072021Z 0720/0818 24008KT P6SM -RASN OVC019
     FM072200 26012KT 4SM -RASN OVC020
     FM080300 29014G22KT 3SM -SN BLSN OVC015
     FM080900 32014G22KT 4SM -SN BLSN OVC015
     FM081600 34012G20KT P6SM -SN OVC025=



000
FTUS43 KDLH 072020 AAA
TAFBRD
TAF AMD
KBRD 072020Z 0720/0818 30018G29KT P6SM -SN SCT020 OVC030
      TEMPO 0720/0721 OVC035
     FM072130 31021G34KT 3SM -SN BLSN OVC015
     FM080900 33018G28KT 6SM -SN BLSN OVC020
     FM081600 34016G25KT P6SM -SN SCT025 OVC035=



000
FTUS43 KDLH 072020 AAA
TAFBRD
TAF AMD
KBRD 072020Z 0720/0818 30018G29KT P6SM -SN SCT020 OVC030
      TEMPO 0720/0721 OVC035
     FM072130 31021G34KT 3SM -SN BLSN OVC015
     FM080900 33018G28KT 6SM -SN BLSN OVC020
     FM081600 34016G25KT P6SM -SN SCT025 OVC035=



000
FTUS43 KDLH 072016 AAA
TAFINL
TAF AMD
KINL 072016Z 0720/0818 29012G19KT 1 1/2SM -SN OVC010
     FM080000 32015G25KT 3SM -SN BLSN OVC015
     FM080900 34013G20KT 6SM -SN BLSN OVC015
     FM081600 34011G18KT P6SM -SN SCT025 OVC035=



000
FTUS43 KDLH 072016 AAA
TAFINL
TAF AMD
KINL 072016Z 0720/0818 29012G19KT 1 1/2SM -SN OVC010
     FM080000 32015G25KT 3SM -SN BLSN OVC015
     FM080900 34013G20KT 6SM -SN BLSN OVC015
     FM081600 34011G18KT P6SM -SN SCT025 OVC035=



000
FTUS43 KDLH 072011 AAA
TAFDLH
TAF AMD
KDLH 072011Z 0720/0818 26012KT 1 1/2SM -SN BR OVC010
     FM072300 30015G24KT 2SM -SN BLSN OVC012
     FM080200 32018G28KT 4SM -SN BLSN OVC015
     FM080900 32015G25KT 6SM -SN BLSN OVC020
     FM081600 33015G25KT P6SM -SN SCT025 OVC035=



000
FTUS43 KDLH 071727
TAFDLH
TAF
KDLH 071727Z 0718/0818 27012KT 3SM -SN BR OVC010
     FM072200 30015G24KT 3SM -SN BLSN OVC013
     FM080200 32018G28KT 4SM -SN BLSN OVC015
     FM080900 32015G25KT 6SM -SN BLSN OVC020
     FM081600 33015G25KT P6SM -SN SCT025 OVC035=



000
FTUS43 KDLH 071727
TAFDLH
TAF
KDLH 071727Z 0718/0818 27012KT 3SM -SN BR OVC010
     FM072200 30015G24KT 3SM -SN BLSN OVC013
     FM080200 32018G28KT 4SM -SN BLSN OVC015
     FM080900 32015G25KT 6SM -SN BLSN OVC020
     FM081600 33015G25KT P6SM -SN SCT025 OVC035=



000
FTUS43 KDLH 071727
TAFINL
TAF
KINL 071727Z 0718/0818 28009KT 5SM -SN OVC008
     FM071900 30011KT 2SM -SN OVC010
     FM072100 31012G19KT 2SM -SN BLSN OVC015
     FM080000 32015G25KT 3SM -SN BLSN OVC015
     FM080900 34013G20KT 6SM -SN BLSN OVC015
     FM081600 34011G18KT P6SM -SN SCT025 OVC035=



000
FTUS43 KDLH 071727
TAFBRD
TAF
KBRD 071727Z 0718/0818 29015G22KT P6SM -RASN OVC020
     FM072100 31017G29KT 3SM -SN BLSN OVC015
     FM080000 32021G34KT 3SM -SN BLSN OVC015
     FM080900 33018G28KT 6SM -SN BLSN OVC020
     FM081600 34016G25KT P6SM -SN SCT025 OVC035=



000
FTUS43 KDLH 071727
TAFBRD
TAF
KBRD 071727Z 0718/0818 29015G22KT P6SM -RASN OVC020
     FM072100 31017G29KT 3SM -SN BLSN OVC015
     FM080000 32021G34KT 3SM -SN BLSN OVC015
     FM080900 33018G28KT 6SM -SN BLSN OVC020
     FM081600 34016G25KT P6SM -SN SCT025 OVC035=



000
FTUS43 KDLH 071727
TAFINL
TAF
KINL 071727Z 0718/0818 28009KT 5SM -SN OVC008
     FM071900 30011KT 2SM -SN OVC010
     FM072100 31012G19KT 2SM -SN BLSN OVC015
     FM080000 32015G25KT 3SM -SN BLSN OVC015
     FM080900 34013G20KT 6SM -SN BLSN OVC015
     FM081600 34011G18KT P6SM -SN SCT025 OVC035=



000
FTUS43 KDLH 071727
TAFHYR
TAF
KHYR 071727Z 0718/0818 24010KT P6SM -RA OVC015
     FM072000 26012KT 4SM -RASN OVC015
     FM080300 29014G22KT 3SM -SN BLSN OVC015
     FM080900 32014G22KT 4SM -SN BLSN OVC015
     FM081600 34012G20KT P6SM -SN OVC025=



000
FTUS43 KDLH 071727
TAFHYR
TAF
KHYR 071727Z 0718/0818 24010KT P6SM -RA OVC015
     FM072000 26012KT 4SM -RASN OVC015
     FM080300 29014G22KT 3SM -SN BLSN OVC015
     FM080900 32014G22KT 4SM -SN BLSN OVC015
     FM081600 34012G20KT P6SM -SN OVC025=



000
FTUS43 KDLH 071641 AAC
TAFINL
TAF AMD
KINL 071641Z 0717/0812 28009KT 5SM -SN OVC008
     FM071800 30011KT 2SM -SN OVC010
     FM072000 31012G19KT 2SM -SN BLSN OVC015
     FM080000 32015G24KT 4SM -SN BLSN OVC015
     FM080900 34013G20KT 6SM -SN BLSN OVC015=



000
FTUS43 KDLH 071641 AAC
TAFINL
TAF AMD
KINL 071641Z 0717/0812 28009KT 5SM -SN OVC008
     FM071800 30011KT 2SM -SN OVC010
     FM072000 31012G19KT 2SM -SN BLSN OVC015
     FM080000 32015G24KT 4SM -SN BLSN OVC015
     FM080900 34013G20KT 6SM -SN BLSN OVC015=



000
FTUS43 KDLH 071604 AAB
TAFBRD
TAF AMD
KBRD 071604Z 0716/0812 28015G23KT P6SM -RASN OVC020
     FM071800 29016G25KT 5SM -SN OVC020
     FM072100 31017G29KT 3SM -SN BLSN OVC015
     FM080000 32021G33KT 3SM -SN BLSN OVC015
     FM080900 33018G28KT 6SM -SN BLSN OVC015=



000
FTUS43 KDLH 071601 AAD
TAFDLH
TAF AMD
KDLH 071601Z 0716/0812 27012KT 3SM -SN OVC010
      TEMPO 0716/0718 6SM -SN
     FM071800 28012G20KT 3SM -SN BLSN OVC010
     FM072200 30015G24KT 3SM -SN BLSN OVC014
     FM080200 32016G28KT 5SM -SN BLSN OVC020=



000
FTUS43 KDLH 071601 AAD
TAFDLH
TAF AMD
KDLH 071601Z 0716/0812 27012KT 3SM -SN OVC010
      TEMPO 0716/0718 6SM -SN
     FM071800 28012G20KT 3SM -SN BLSN OVC010
     FM072200 30015G24KT 3SM -SN BLSN OVC014
     FM080200 32016G28KT 5SM -SN BLSN OVC020=



000
FTUS43 KDLH 071510 AAB
TAFDLH
TAF AMD
KDLH 071510Z 0715/0812 26011KT 1 1/2SM -SN OVC008
     FM071800 28012G20KT 3SM -SN BLSN OVC010
     FM072200 30015G24KT 3SM -SN BLSN OVC014
     FM080200 32016G28KT 5SM -SN BLSN OVC020=



000
FTUS43 KDLH 071510 AAB
TAFDLH
TAF AMD
KDLH 071510Z 0715/0812 26011KT 1 1/2SM -SN OVC008
     FM071800 28012G20KT 3SM -SN BLSN OVC010
     FM072200 30015G24KT 3SM -SN BLSN OVC014
     FM080200 32016G28KT 5SM -SN BLSN OVC020=



000
FTUS43 KDLH 071509 AAA
TAFHYR
TAF AMD
KHYR 071509Z 0715/0812 21010KT P6SM OVC014
     FM071700 25010KT P6SM -DZSN OVC010
     FM071900 26012G20KT 4SM -SN OVC010
     FM080300 30014G24KT 3SM -SN BLSN OVC015
     FM080900 33010G18KT 5SM -SN OVC015=



000
FTUS43 KDLH 071458 AAA
TAFBRD
TAF AMD
KBRD 071458Z 0715/0812 27015G22KT 3SM -SN BR OVC015
     FM072100 31017G29KT 3SM -SN BLSN OVC015
     FM080000 32021G33KT 3SM -SN BLSN OVC015
     FM080900 33018G28KT 6SM -SN BLSN OVC015=



000
FTUS43 KDLH 071440 AAB
TAFINL
TAF AMD
KINL 071440Z 0715/0812 22004KT 6SM -SN SCT007 OVC010
     FM071700 29011KT 2SM -SN OVC012
     FM072000 31012G19KT 2SM -SN BLSN OVC015
     FM080000 32015G24KT 4SM -SN BLSN OVC015
     FM080900 34013G20KT 6SM -SN BLSN OVC015=



000
FTUS43 KDLH 071426 AAC
TAFDLH
TAF AMD
KDLH 071426Z 0714/0812 23009KT 2SM -SN OVC006
     FM071800 28012G20KT 3SM -SN BLSN OVC010
     FM072200 30015G24KT 3SM -SN BLSN OVC014
     FM080200 32016G28KT 5SM -SN BLSN OVC020=



000
FTUS43 KDLH 071426 AAC
TAFDLH
TAF AMD
KDLH 071426Z 0714/0812 23009KT 2SM -SN OVC006
     FM071800 28012G20KT 3SM -SN BLSN OVC010
     FM072200 30015G24KT 3SM -SN BLSN OVC014
     FM080200 32016G28KT 5SM -SN BLSN OVC020=



000
FTUS43 KDLH 071256 AAA
TAFINL
TAF AMD
KINL 071256Z 0713/0812 22005KT 5SM -SN BKN016 OVC035
      TEMPO 0713/0715 25008KT 2SM -SN BKN007
     FM071500 28012G20KT 4SM -SN BKN015 OVC025
     FM071800 30015G25KT 2SM -SN OVC010
     FM072100 32016G26KT 3SM -SN BLSN OVC015
     FM080000 32015G25KT 6SM -SN BLSN OVC020=



000
FTUS43 KDLH 071256 AAA
TAFINL
TAF AMD
KINL 071256Z 0713/0812 22005KT 5SM -SN BKN016 OVC035
      TEMPO 0713/0715 25008KT 2SM -SN BKN007
     FM071500 28012G20KT 4SM -SN BKN015 OVC025
     FM071800 30015G25KT 2SM -SN OVC010
     FM072100 32016G26KT 3SM -SN BLSN OVC015
     FM080000 32015G25KT 6SM -SN BLSN OVC020=



000
FTUS43 KDLH 071254 AAA
TAFDLH
TAF AMD
KDLH 071254Z 0713/0812 23012KT 4SM -DZSN BKN018 OVC040
      TEMPO 0713/0715 25014G20KT 1SM -SN OVC006
     FM071500 25012G20KT 5SM -SN OVC012
     FM071800 27014G22KT 3SM -SN BLSN OVC010
     FM072200 30015G26KT 3SM -SN BLSN OVC014
     FM080200 32016G28KT 5SM -SN BLSN OVC020=



000
FTUS43 KDLH 071254 AAA
TAFDLH
TAF AMD
KDLH 071254Z 0713/0812 23012KT 4SM -DZSN BKN018 OVC040
      TEMPO 0713/0715 25014G20KT 1SM -SN OVC006
     FM071500 25012G20KT 5SM -SN OVC012
     FM071800 27014G22KT 3SM -SN BLSN OVC010
     FM072200 30015G26KT 3SM -SN BLSN OVC014
     FM080200 32016G28KT 5SM -SN BLSN OVC020=



000
FTUS43 KDLH 071145
TAFBRD
TAF
KBRD 071145Z 0712/0812 26014G25KT P6SM VCSH BKN015 OVC040
      TEMPO 0712/0714 28020KT 2SM -SN BKN008
     FM071400 29016G27KT 3SM -SN BLSN OVC010
     FM072000 31018G30KT 4SM -SN BLSN OVC015
     FM080200 32020G32KT 6SM -SN BLSN OVC020=



000
FTUS43 KDLH 071145
TAFHYR
TAF
KHYR 071145Z 0712/0812 21012KT P6SM VCSH SCT012 OVC040
      TEMPO 0712/0714 -SNDZ BKN012
     FM071400 24012G18KT 4SM -DZSN BKN015 OVC035
     FM071800 26012G20KT 2SM -SN BLSN OVC012
     FM080000 29013G24KT 2SM -SN BLSN OVC010
     FM080400 31014G25KT 4SM -SN BLSN OVC018=



000
FTUS43 KDLH 071145
TAFINL
TAF
KINL 071145Z 0712/0812 23005KT P6SM -SN BKN020 OVC035
      TEMPO 0712/0715 25008KT 4SM -DZSN BKN014
     FM071500 28012G20KT 4SM -SN BKN015 OVC025
     FM071800 30015G25KT 2SM -SN OVC010
     FM072100 32016G26KT 3SM -SN BLSN OVC015
     FM080000 32015G25KT 6SM -SN BLSN OVC020=



000
FTUS43 KDLH 071145
TAFDLH
TAF
KDLH 071145Z 0712/0812 23012KT 6SM -DZ BKN020 OVC060
      TEMPO 0712/0715 25014G20KT 3SM -DZSN OVC012
     FM071500 25012G20KT 5SM -SN OVC012
     FM071800 27014G22KT 3SM -SN BLSN OVC010
     FM072200 30015G26KT 3SM -SN BLSN OVC014
     FM080200 32016G28KT 5SM -SN BLSN OVC020=



000
FTUS43 KDLH 071106 AAB
TAFHYR
TAF AMD
KHYR 071106Z 0711/0806 19012KT P6SM VCSH SCT015 OVC060
      TEMPO 0711/0714 -DZ BKN015
     FM071400 23010KT 4SM -DZSN BKN015 OVC035
     FM071800 26010G18KT 4SM -SN OVC012
     FM080000 32012G25KT 2SM -SN BLSN OVC010=



000
FTUS43 KDLH 071106 AAB
TAFHYR
TAF AMD
KHYR 071106Z 0711/0806 19012KT P6SM VCSH SCT015 OVC060
      TEMPO 0711/0714 -DZ BKN015
     FM071400 23010KT 4SM -DZSN BKN015 OVC035
     FM071800 26010G18KT 4SM -SN OVC012
     FM080000 32012G25KT 2SM -SN BLSN OVC010=



000
FTUS43 KDLH 071021 AAA
TAFINL
TAF AMD
KINL 071021Z 0710/0806 18006KT P6SM -SN BKN025 OVC040
      TEMPO 0710/0712 24010KT 4SM -SN BKN017
     FM071200 26010KT 4SM -SN OVC017
     FM071500 29012G20KT 2SM -SN OVC010
     FM072100 32016G26KT 6SM -SN OVC025=



000
FTUS43 KDLH 071015 AAB
TAFDLH
TAF AMD
KDLH 071015Z 0710/0806 22012KT P6SM SCT015 OVC060
      TEMPO 0710/0712 BKN012
     FM071200 25014KT 5SM -SN BR OVC015
     FM071500 27014KT 3SM -SN BR OVC010
     FM072300 31016G28KT 2SM -SN OVC010=



000
FTUS43 KDLH 070923 AAA
TAFHYR
TAF AMD
KHYR 070923Z 0709/0806 19012KT P6SM -SN SCT015 OVC040
      TEMPO 0709/0712 2SM -SN BKN015
     FM071500 23010KT 4SM -SN BKN012 OVC025
     FM071800 26010G18KT 4SM -SN OVC012
     FM080000 32012G25KT 2SM -SN BLSN OVC010=



000
FTUS43 KDLH 070919 AAA
TAFBRD
TAF AMD
KBRD 070919Z 0709/0806 23012KT P6SM BKN020 OVC040 WS020/28035KT
      TEMPO 0709/0712 25014G20KT -DZ OVC012
     FM071200 28015G25KT 4SM -SN BKN015 OVC030
     FM072100 31018G30KT 2SM -SN BLSN OVC025=



000
FTUS43 KDLH 070919 AAA
TAFBRD
TAF AMD
KBRD 070919Z 0709/0806 23012KT P6SM BKN020 OVC040 WS020/28035KT
      TEMPO 0709/0712 25014G20KT -DZ OVC012
     FM071200 28015G25KT 4SM -SN BKN015 OVC030
     FM072100 31018G30KT 2SM -SN BLSN OVC025=



000
FTUS43 KDLH 070745 AAB
TAFDLH
TAF AMD
KDLH 070745Z 0708/0806 22012KT P6SM SCT015 OVC060
      TEMPO 0708/0712 BKN009
     FM071200 25014KT 5SM -SN BR OVC015
     FM071500 27014KT 3SM -SN BR OVC010
     FM072300 31016G28KT 2SM -SN OVC010=



000
FTUS43 KDLH 070622 AAA
TAFDLH
TAF AMD
KDLH 070622Z 0706/0806 21012KT P6SM -SN BKN015 OVC025 WS020/27035KT
      TEMPO 0706/0708 2SM -FZRA OVC008
     FM070800 22012KT P6SM SCT020 OVC060
     FM071200 25014KT 5SM -SN BR OVC015
     FM071500 27014KT 3SM -SN BR OVC010
     FM072300 31016G28KT 2SM -SN OVC010=



000
FTUS43 KDLH 070622 AAA
TAFDLH
TAF AMD
KDLH 070622Z 0706/0806 21012KT P6SM -SN BKN015 OVC025 WS020/27035KT
      TEMPO 0706/0708 2SM -FZRA OVC008
     FM070800 22012KT P6SM SCT020 OVC060
     FM071200 25014KT 5SM -SN BR OVC015
     FM071500 27014KT 3SM -SN BR OVC010
     FM072300 31016G28KT 2SM -SN OVC010=



000
FTUS43 KDLH 070539
TAFINL
TAF
KINL 070539Z 0706/0806 17006KT P6SM -SN SCT008 BKN050
      TEMPO 0706/0708 2SM -SN BR OVC010
     FM071100 23007KT 4SM -SN BR OVC015
     FM071800 32012G20KT 2SM -SN OVC010
     FM080000 32016G24KT 6SM -SN OVC025=



000
FTUS43 KDLH 070539
TAFBRD
TAF
KBRD 070539Z 0706/0806 20012KT P6SM OVC060 WS020/28035KT
     FM071000 25011KT 4SM -SN OVC015
     FM071500 28015G23KT 2SM -SN OVC015
     FM072200 31018G28KT 5SM -SN OVC025=



000
FTUS43 KDLH 070539
TAFHYR
TAF
KHYR 070539Z 0706/0806 19012G20KT 2SM -SN BR OVC013
      TEMPO 0706/0708 6SM -SN SCT013 BKN040
     FM070800 21008KT P6SM -SN OVC050
     FM071500 23008KT 3SM -SN OVC015
     FM072100 26012KT 4SM -SN OVC015
     FM080000 32012G22KT 3SM -SN OVC010=



000
FTUS43 KDLH 070539
TAFDLH
TAF
KDLH 070539Z 0706/0806 22012KT P6SM VCSH OVC040 WS020/27035KT
      TEMPO 0706/0708 2SM -SN BKN008 OVC012
     FM071200 25014KT 5SM -SN BR OVC015
     FM071500 27014KT 3SM -SN BR OVC010
     FM072300 31016G28KT 2SM -SN OVC010=



000
FTUS43 KDLH 070539
TAFINL
TAF
KINL 070539Z 0706/0806 17006KT P6SM -SN SCT008 BKN050
      TEMPO 0706/0708 2SM -SN BR OVC010
     FM071100 23007KT 4SM -SN BR OVC015
     FM071800 32012G20KT 2SM -SN OVC010
     FM080000 32016G24KT 6SM -SN OVC025=



000
FTUS43 KDLH 070539
TAFBRD
TAF
KBRD 070539Z 0706/0806 20012KT P6SM OVC060 WS020/28035KT
     FM071000 25011KT 4SM -SN OVC015
     FM071500 28015G23KT 2SM -SN OVC015
     FM072200 31018G28KT 5SM -SN OVC025=



000
FTUS43 KDLH 070539
TAFHYR
TAF
KHYR 070539Z 0706/0806 19012G20KT 2SM -SN BR OVC013
      TEMPO 0706/0708 6SM -SN SCT013 BKN040
     FM070800 21008KT P6SM -SN OVC050
     FM071500 23008KT 3SM -SN OVC015
     FM072100 26012KT 4SM -SN OVC015
     FM080000 32012G22KT 3SM -SN OVC010=



000
FTUS43 KDLH 070539
TAFDLH
TAF
KDLH 070539Z 0706/0806 22012KT P6SM VCSH OVC040 WS020/27035KT
      TEMPO 0706/0708 2SM -SN BKN008 OVC012
     FM071200 25014KT 5SM -SN BR OVC015
     FM071500 27014KT 3SM -SN BR OVC010
     FM072300 31016G28KT 2SM -SN OVC010=



000
FTUS43 KDLH 070520 AAC
TAFDLH
TAF AMD
KDLH 070520Z 0705/0724 21011KT 3/4SM -SN BR OVC008 WS020/23035KT
      TEMPO 0705/0706 2SM -SN SCT013 OVC050
     FM070600 23012KT P6SM -SN OVC040 WS020/27035KT
     FM071200 25014KT 4SM -SN OVC015
     FM071500 27014KT 2SM -SN OVC015
     FM072300 30015G25KT 2SM -SN OVC010=



000
FTUS43 KDLH 070520 AAC
TAFDLH
TAF AMD
KDLH 070520Z 0705/0724 21011KT 3/4SM -SN BR OVC008 WS020/23035KT
      TEMPO 0705/0706 2SM -SN SCT013 OVC050
     FM070600 23012KT P6SM -SN OVC040 WS020/27035KT
     FM071200 25014KT 4SM -SN OVC015
     FM071500 27014KT 2SM -SN OVC015
     FM072300 30015G25KT 2SM -SN OVC010=



000
FTUS43 KDLH 070421 AAB
TAFHYR
TAF AMD
KHYR 070421Z 0704/0724 20012KT 1 1/2SM -SN BR OVC013
      TEMPO 0704/0708 6SM -SN SCT013 BKN040
     FM070800 21008KT 4SM -SN OVC050
     FM071500 23008KT 3SM -SN OVC015
     FM072100 26012KT 4SM -SN OVC015=



000
FTUS43 KDLH 070421 AAB
TAFINL
TAF AMD
KINL 070421Z 0704/0724 16007KT P6SM OVC035
      TEMPO 0704/0708 1 1/2SM -SN BR OVC020
     FM070900 23007KT 2SM -SN OVC007
     FM071800 32014G22KT 2SM -SN OVC010=



000
FTUS43 KDLH 070421 AAB
TAFINL
TAF AMD
KINL 070421Z 0704/0724 16007KT P6SM OVC035
      TEMPO 0704/0708 1 1/2SM -SN BR OVC020
     FM070900 23007KT 2SM -SN OVC007
     FM071800 32014G22KT 2SM -SN OVC010=



000
FTUS43 KDLH 070420 AAB
TAFDLH
TAF AMD
KDLH 070420Z 0704/0724 21011KT P6SM -SN BKN013 OVC022 WS020/23035KT
      TEMPO 0704/0706 2SM -SN SCT013 OVC050
     FM070600 23012KT P6SM -SN OVC040 WS020/27035KT
     FM071200 25014KT 4SM -SN OVC015
     FM071500 27014KT 2SM -SN OVC015
     FM072300 30015G25KT 2SM -SN OVC010=



000
FTUS43 KDLH 070343 AAA
TAFHYR
TAF AMD
KHYR 070343Z 0704/0724 20015G24KT 1 1/2SM -SN SCT015 OVC040
     FM070600 21008KT 4SM -SN OVC050
     FM071500 23008KT 3SM -SN OVC015
     FM072100 26012KT 4SM -SN OVC015=



000
FTUS43 KDLH 070342 AAA
TAFINL
TAF AMD
KINL 070342Z 0704/0724 16007KT P6SM VCSH SCT025 OVC045
     FM070900 23007KT 2SM -SN OVC007
     FM071800 32014G22KT 2SM -SN OVC010=



000
FTUS43 KDLH 070342 AAA
TAFINL
TAF AMD
KINL 070342Z 0704/0724 16007KT P6SM VCSH SCT025 OVC045
     FM070900 23007KT 2SM -SN OVC007
     FM071800 32014G22KT 2SM -SN OVC010=



000
FTUS43 KDLH 070341 AAC
TAFDLH
TAF AMD
KDLH 070341Z 0704/0724 21011KT P6SM -SN BKN022 OVC040 WS020/23035KT
     FM070600 23012KT P6SM -SN OVC040 WS020/27035KT
     FM071200 25014KT 4SM -SN OVC015
     FM071500 27014KT 2SM -SN OVC015
     FM072300 30015G25KT 2SM -SN OVC010=



000
FTUS43 KDLH 070341 AAC
TAFDLH
TAF AMD
KDLH 070341Z 0704/0724 21011KT P6SM -SN BKN022 OVC040 WS020/23035KT
     FM070600 23012KT P6SM -SN OVC040 WS020/27035KT
     FM071200 25014KT 4SM -SN OVC015
     FM071500 27014KT 2SM -SN OVC015
     FM072300 30015G25KT 2SM -SN OVC010=



000
FTUS43 KDLH 070312 AAB
TAFDLH
TAF AMD
KDLH 070312Z 0703/0724 22010KT 2SM -SN BR BKN018 OVC027
      WS020/23035KT
     FM070600 23012KT 3SM -SN OVC015 WS020/27035KT
     FM071200 25014KT 4SM -SN OVC015
     FM071500 27014KT 2SM -SN OVC015
     FM072300 30015G25KT 2SM -SN OVC010=



000
FTUS43 KDLH 070312 AAB
TAFDLH
TAF AMD
KDLH 070312Z 0703/0724 22010KT 2SM -SN BR BKN018 OVC027
      WS020/23035KT
     FM070600 23012KT 3SM -SN OVC015 WS020/27035KT
     FM071200 25014KT 4SM -SN OVC015
     FM071500 27014KT 2SM -SN OVC015
     FM072300 30015G25KT 2SM -SN OVC010=



000
FTUS43 KDLH 070245 AAA
TAFDLH
TAF AMD
KDLH 070245Z 0703/0724 21012KT 1 1/2SM -SN BR FEW013 BKN024 OVC035
      WS020/23035KT
     FM070600 23012KT 3SM -SN OVC015 WS020/27035KT
     FM071200 25014KT 4SM -SN OVC015
     FM071500 27014KT 2SM -SN OVC015
     FM072300 30015G25KT 2SM -SN OVC010=



000
FTUS43 KDLH 070245 AAA
TAFDLH
TAF AMD
KDLH 070245Z 0703/0724 21012KT 1 1/2SM -SN BR FEW013 BKN024 OVC035
      WS020/23035KT
     FM070600 23012KT 3SM -SN OVC015 WS020/27035KT
     FM071200 25014KT 4SM -SN OVC015
     FM071500 27014KT 2SM -SN OVC015
     FM072300 30015G25KT 2SM -SN OVC010=



000
FTUS43 KDLH 062336
TAFHYR
TAF
KHYR 062336Z 0700/0724 19013KT P6SM BKN070 WS020/24040KT
     FM070300 23010KT 3SM -SN OVC025
     FM070600 21008KT 2SM -SN OVC015
     FM071500 23008KT 3SM -SN OVC015
     FM072100 26012KT 4SM -SN OVC015=



000
FTUS43 KDLH 062336
TAFINL
TAF
KINL 062336Z 0700/0724 14007KT 1/2SM -SN FZFG OVC022
      TEMPO 0700/0702 1SM -SN OVC007
     FM070500 19007KT 2SM -SN OVC010
     FM070900 23007KT 2SM -SN OVC007
     FM071800 32014G22KT 2SM -SN OVC010=



000
FTUS43 KDLH 062336
TAFHYR
TAF
KHYR 062336Z 0700/0724 19013KT P6SM BKN070 WS020/24040KT
     FM070300 23010KT 3SM -SN OVC025
     FM070600 21008KT 2SM -SN OVC015
     FM071500 23008KT 3SM -SN OVC015
     FM072100 26012KT 4SM -SN OVC015=



000
FTUS43 KDLH 062336
TAFBRD
TAF
KBRD 062336Z 0700/0724 19011KT P6SM BKN100 WS020/25040KT
     FM070500 24012KT 4SM -SN OVC012 WS020/28035KT
     FM070900 25015KT 4SM -SN OVC015
     FM071500 28015G23KT 2SM -SN OVC015=



000
FTUS43 KDLH 062336
TAFDLH
TAF
KDLH 062336Z 0700/0724 18013KT P6SM OVC060 WS020/23035KT
      TEMPO 0701/0704 2SM -SN OVC025
     FM070600 23012KT P6SM OVC015 WS020/27035KT
     FM071200 25014KT 6SM -SN OVC015
     FM071500 27014KT 2SM -SN OVC015
     FM072300 30015G25KT 2SM -SN OVC010=



000
FTUS43 KDLH 062336
TAFBRD
TAF
KBRD 062336Z 0700/0724 19011KT P6SM BKN100 WS020/25040KT
     FM070500 24012KT 4SM -SN OVC012 WS020/28035KT
     FM070900 25015KT 4SM -SN OVC015
     FM071500 28015G23KT 2SM -SN OVC015=



000
FTUS43 KDLH 062336
TAFDLH
TAF
KDLH 062336Z 0700/0724 18013KT P6SM OVC060 WS020/23035KT
      TEMPO 0701/0704 2SM -SN OVC025
     FM070600 23012KT P6SM OVC015 WS020/27035KT
     FM071200 25014KT 6SM -SN OVC015
     FM071500 27014KT 2SM -SN OVC015
     FM072300 30015G25KT 2SM -SN OVC010=



000
FTUS43 KDLH 062336
TAFINL
TAF
KINL 062336Z 0700/0724 14007KT 1/2SM -SN FZFG OVC022
      TEMPO 0700/0702 1SM -SN OVC007
     FM070500 19007KT 2SM -SN OVC010
     FM070900 23007KT 2SM -SN OVC007
     FM071800 32014G22KT 2SM -SN OVC010=



000
FTUS43 KDLH 062220 AAC
TAFINL
TAF AMD
KINL 062220Z 0622/0718 14007KT 3/4SM -SN BKN026 OVC035
     FM070000 15008KT 2SM -SN OVC010
      TEMPO 0700/0702 3/4SM -SN OVC007
     FM070500 19007KT P6SM -SN OVC010
     FM070900 22005KT 2SM -SN OVC007=



000
FTUS43 KDLH 062142 AAB
TAFINL
TAF AMD
KINL 062142Z 0622/0718 14008KT 1 1/2SM -SN OVC035
     FM070000 15008KT 2SM -SN OVC010
      TEMPO 0700/0702 3/4SM -SN OVC007
     FM070500 19007KT P6SM -SN OVC010
     FM070900 22005KT 2SM -SN OVC007=



000
FTUS43 KDLH 062142 AAB
TAFINL
TAF AMD
KINL 062142Z 0622/0718 14008KT 1 1/2SM -SN OVC035
     FM070000 15008KT 2SM -SN OVC010
      TEMPO 0700/0702 3/4SM -SN OVC007
     FM070500 19007KT P6SM -SN OVC010
     FM070900 22005KT 2SM -SN OVC007=



000
FTUS43 KDLH 062002 AAA
TAFINL
TAF AMD
KINL 062002Z 0620/0718 14008KT P6SM BKN080
     FM062200 15008KT 4SM -SN OVC025
     FM070000 15008KT 2SM -SN OVC010
      TEMPO 0700/0702 3/4SM -SN OVC007
     FM070500 19007KT P6SM -SN OVC010
     FM070900 22005KT 2SM -SN OVC007=



000
FTUS43 KDLH 062002 AAA
TAFINL
TAF AMD
KINL 062002Z 0620/0718 14008KT P6SM BKN080
     FM062200 15008KT 4SM -SN OVC025
     FM070000 15008KT 2SM -SN OVC010
      TEMPO 0700/0702 3/4SM -SN OVC007
     FM070500 19007KT P6SM -SN OVC010
     FM070900 22005KT 2SM -SN OVC007=



000
FTUS43 KDLH 062001 AAA
TAFDLH
TAF AMD
KDLH 062001Z 0620/0718 20011G18KT P6SM BKN080
     FM070000 20012KT 4SM -SN OVC015 WS020/23035KT
      TEMPO 0701/0704 2SM -SN
     FM070600 23012KT P6SM OVC015 WS020/27035KT
     FM071200 25014KT 6SM -SN OVC015
     FM071500 27014KT 2SM -SN OVC015=



000
FTUS43 KDLH 062001 AAA
TAFDLH
TAF AMD
KDLH 062001Z 0620/0718 20011G18KT P6SM BKN080
     FM070000 20012KT 4SM -SN OVC015 WS020/23035KT
      TEMPO 0701/0704 2SM -SN
     FM070600 23012KT P6SM OVC015 WS020/27035KT
     FM071200 25014KT 6SM -SN OVC015
     FM071500 27014KT 2SM -SN OVC015=



000
FTUS43 KDLH 061733
TAFDLH
TAF
KDLH 061733Z 0618/0718 22009KT P6SM OVC100
     FM062100 20012KT P6SM SCT025 OVC050
     FM070000 20012KT 4SM -SN OVC015 WS020/23035KT
      TEMPO 0701/0704 2SM -SN
     FM070600 23012KT P6SM OVC015 WS020/27035KT
     FM071200 25014KT 6SM -SN OVC015
     FM071500 27014KT 2SM -SN OVC015=



000
FTUS43 KDLH 061733
TAFINL
TAF
KINL 061733Z 0618/0718 15007KT P6SM SCT080 OVC100
     FM062000 15008KT 4SM -SN OVC025
     FM062300 15008KT 2SM -SN OVC010
      TEMPO 0623/0702 3/4SM -SN OVC007
     FM070500 19007KT P6SM -SN OVC010
     FM070900 22005KT 2SM -SN OVC007=



000
FTUS43 KDLH 061733
TAFHYR
TAF
KHYR 061733Z 0618/0718 19010KT P6SM OVC100
     FM070100 20009KT 6SM -SN OVC030 WS020/24040KT
     FM070600 21008KT P6SM OVC015
     FM071500 23008KT 3SM -SN OVC015=



000
FTUS43 KDLH 061733
TAFBRD
TAF
KBRD 061733Z 0618/0718 19011KT P6SM OVC100
     FM062100 20012KT 6SM -SN SCT040 OVC060
     FM070000 21012KT P6SM OVC060 WS020/25040KT
     FM070500 24012KT P6SM OVC012 WS020/28035KT
     FM070900 25015KT 4SM -SN OVC015
     FM071500 28015G23KT 2SM -SN OVC015=



000
FTUS43 KDLH 061642 AAC
TAFDLH
TAF AMD
KDLH 061642Z 0617/0712 22009KT P6SM OVC100
     FM062100 20012KT P6SM SCT025 OVC050
     FM070000 20012KT 4SM -SN OVC015 WS020/23035KT
      TEMPO 0701/0704 2SM -SN
     FM070600 23012KT P6SM OVC010 WS020/27035KT=



000
FTUS43 KDLH 061642 AAC
TAFDLH
TAF AMD
KDLH 061642Z 0617/0712 22009KT P6SM OVC100
     FM062100 20012KT P6SM SCT025 OVC050
     FM070000 20012KT 4SM -SN OVC015 WS020/23035KT
      TEMPO 0701/0704 2SM -SN
     FM070600 23012KT P6SM OVC010 WS020/27035KT=



000
FTUS43 KDLH 061433 AAB
TAFHYR
TAF AMD
KHYR 061433Z 0615/0712 22005KT P6SM OVC010
     FM061800 20009KT P6SM OVC020
     FM062200 19011KT P6SM SCT025 OVC060 WS020/23035KT
     FM070200 20012KT 4SM -SN OVC020 WS020/24040KT
     FM070600 22012KT P6SM OVC015 WS020/26035KT=



000
FTUS43 KDLH 061425 AAB
TAFINL
TAF AMD
KINL 061425Z 0614/0712 15004KT 4SM BR BKN025 OVC060
     FM061600 15005KT P6SM SCT025 OVC050
     FM062000 16010KT 2SM -SN OVC015
      TEMPO 0622/0702 3/4SM -SN OVC007
     FM070600 23012KT P6SM VCSH OVC010=



000
FTUS43 KDLH 061425 AAB
TAFINL
TAF AMD
KINL 061425Z 0614/0712 15004KT 4SM BR BKN025 OVC060
     FM061600 15005KT P6SM SCT025 OVC050
     FM062000 16010KT 2SM -SN OVC015
      TEMPO 0622/0702 3/4SM -SN OVC007
     FM070600 23012KT P6SM VCSH OVC010=



000
FTUS43 KDLH 061421 AAB
TAFBRD
TAF AMD
KBRD 061421Z 0614/0712 19007KT 4SM BR SCT005 BKN120
     FM061600 20010KT P6SM BKN100
     FM062200 20012KT P6SM SCT015 OVC040 WS020/25035KT
      TEMPO 0622/0702 2SM -SN BKN012
     FM070200 22014KT P6SM VCSH OVC012 WS020/28040KT
     FM071000 24014KT 6SM -SN OVC010 WS020/28040KT=



000
FTUS43 KDLH 061421 AAB
TAFBRD
TAF AMD
KBRD 061421Z 0614/0712 19007KT 4SM BR SCT005 BKN120
     FM061600 20010KT P6SM BKN100
     FM062200 20012KT P6SM SCT015 OVC040 WS020/25035KT
      TEMPO 0622/0702 2SM -SN BKN012
     FM070200 22014KT P6SM VCSH OVC012 WS020/28040KT
     FM071000 24014KT 6SM -SN OVC010 WS020/28040KT=



000
FTUS43 KDLH 061235 AAA
TAFHYR
TAF AMD
KHYR 061235Z 0613/0712 23002KT P6SM BKN015 BKN080
      TEMPO 0613/0616 4SM BR OVC009
     FM061800 20012KT P6SM SCT020 BKN080
     FM062200 19014KT P6SM BKN015 OVC040 WS020/23035KT
     FM070200 20014G20KT 3SM -SN OVC012 WS020/24035KT
      TEMPO 0702/0706 1SM -SN OVC008
     FM070600 22012KT P6SM VCSH OVC015 WS020/26035KT=



000
FTUS43 KDLH 061235 AAA
TAFHYR
TAF AMD
KHYR 061235Z 0613/0712 23002KT P6SM BKN015 BKN080
      TEMPO 0613/0616 4SM BR OVC009
     FM061800 20012KT P6SM SCT020 BKN080
     FM062200 19014KT P6SM BKN015 OVC040 WS020/23035KT
     FM070200 20014G20KT 3SM -SN OVC012 WS020/24035KT
      TEMPO 0702/0706 1SM -SN OVC008
     FM070600 22012KT P6SM VCSH OVC015 WS020/26035KT=



000
FTUS43 KDLH 061234 AAA
TAFBRD
TAF AMD
KBRD 061234Z 0613/0712 19006KT 5SM BR SCT020 BKN100
      TEMPO 0613/0615 2SM BR BKN005
     FM061800 19014KT P6SM SCT025 OVC080
     FM062200 20014KT P6SM SCT015 OVC040 WS020/24035KT
      TEMPO 0622/0702 2SM -SN BKN012
     FM070200 22014KT P6SM VCSH OVC012 WS020/28040KT
     FM071000 24014KT 6SM -SN OVC010 WS020/28040KT=



000
FTUS43 KDLH 061234 AAA
TAFBRD
TAF AMD
KBRD 061234Z 0613/0712 19006KT 5SM BR SCT020 BKN100
      TEMPO 0613/0615 2SM BR BKN005
     FM061800 19014KT P6SM SCT025 OVC080
     FM062200 20014KT P6SM SCT015 OVC040 WS020/24035KT
      TEMPO 0622/0702 2SM -SN BKN012
     FM070200 22014KT P6SM VCSH OVC012 WS020/28040KT
     FM071000 24014KT 6SM -SN OVC010 WS020/28040KT=



000
FTUS43 KDLH 061232 AAA
TAFINL
TAF AMD
KINL 061232Z 0613/0712 20003KT P6SM SCT020 BKN080
      TEMPO 0613/0615 4SM BR BKN015
     FM061500 16007KT P6SM SCT020 OVC050
     FM062000 16010KT 2SM -SN OVC015
      TEMPO 0622/0702 3/4SM -SN OVC007
     FM070600 23012KT P6SM VCSH OVC010=



000
FTUS43 KDLH 061232 AAA
TAFINL
TAF AMD
KINL 061232Z 0613/0712 20003KT P6SM SCT020 BKN080
      TEMPO 0613/0615 4SM BR BKN015
     FM061500 16007KT P6SM SCT020 OVC050
     FM062000 16010KT 2SM -SN OVC015
      TEMPO 0622/0702 3/4SM -SN OVC007
     FM070600 23012KT P6SM VCSH OVC010=



000
FTUS43 KDLH 061229 AAA
TAFDLH
TAF AMD
KDLH 061229Z 0612/0712 24007KT P6SM SCT025 BKN080
     FM062000 20012KT P6SM SCT020 OVC050
     FM070000 19012KT 2SM -SN OVC015 WS020/23035KT
      TEMPO 0700/0704 3/4SM -SN OVC007
     FM070600 23014KT P6SM VCSH OVC010 WS020/26035KT=



000
FTUS43 KDLH 061229 AAA
TAFDLH
TAF AMD
KDLH 061229Z 0612/0712 24007KT P6SM SCT025 BKN080
     FM062000 20012KT P6SM SCT020 OVC050
     FM070000 19012KT 2SM -SN OVC015 WS020/23035KT
      TEMPO 0700/0704 3/4SM -SN OVC007
     FM070600 23014KT P6SM VCSH OVC010 WS020/26035KT=



000
FTUS43 KDLH 061129
TAFINL
TAF
KINL 061129Z 0612/0712 20003KT P6SM SCT020 BKN080
      TEMPO 0612/0614 6SM BR BKN015
     FM061600 16007KT P6SM SCT015 OVC050
     FM062000 16010KT 2SM -SN OVC015
      TEMPO 0622/0702 3/4SM -SN OVC007
     FM070600 23012KT P6SM VCSH OVC010=



000
FTUS43 KDLH 061129
TAFBRD
TAF
KBRD 061129Z 0612/0712 19006KT 5SM BR SCT020 BKN100
      TEMPO 0612/0615 5SM BR BKN015
     FM061800 19014KT P6SM SCT025 OVC080
     FM062200 20014KT P6SM SCT015 OVC040
      TEMPO 0622/0702 2SM -SN BKN012
     FM070200 22014KT P6SM VCSH OVC012
     FM071000 24014KT 6SM -SN OVC012=



000
FTUS43 KDLH 061129
TAFHYR
TAF
KHYR 061129Z 0612/0712 23002KT P6SM BKN015 BKN080
      TEMPO 0612/0616 4SM BR OVC009
     FM061800 20012KT P6SM SCT020 BKN080
     FM062200 19014KT P6SM BKN015 OVC040
     FM070200 20014G20KT 3SM -SN OVC012
      TEMPO 0702/0706 1SM -SN OVC008
     FM070600 22012KT P6SM VCSH OVC015=



000
FTUS43 KDLH 061129
TAFDLH
TAF
KDLH 061129Z 0612/0712 24007KT P6SM SCT020 BKN080
     FM062000 20012KT P6SM SCT015 OVC050
     FM070000 19012KT 2SM -SN OVC015
      TEMPO 0700/0704 3/4SM -SN OVC007
     FM070600 23014KT P6SM VCSH OVC010=



000
FTUS43 KDLH 061129
TAFHYR
TAF
KHYR 061129Z 0612/0712 23002KT P6SM BKN015 BKN080
      TEMPO 0612/0616 4SM BR OVC009
     FM061800 20012KT P6SM SCT020 BKN080
     FM062200 19014KT P6SM BKN015 OVC040
     FM070200 20014G20KT 3SM -SN OVC012
      TEMPO 0702/0706 1SM -SN OVC008
     FM070600 22012KT P6SM VCSH OVC015=



000
FTUS43 KDLH 061129
TAFINL
TAF
KINL 061129Z 0612/0712 20003KT P6SM SCT020 BKN080
      TEMPO 0612/0614 6SM BR BKN015
     FM061600 16007KT P6SM SCT015 OVC050
     FM062000 16010KT 2SM -SN OVC015
      TEMPO 0622/0702 3/4SM -SN OVC007
     FM070600 23012KT P6SM VCSH OVC010=



000
FTUS43 KDLH 061129
TAFDLH
TAF
KDLH 061129Z 0612/0712 24007KT P6SM SCT020 BKN080
     FM062000 20012KT P6SM SCT015 OVC050
     FM070000 19012KT 2SM -SN OVC015
      TEMPO 0700/0704 3/4SM -SN OVC007
     FM070600 23014KT P6SM VCSH OVC010=



000
FTUS43 KDLH 061129
TAFBRD
TAF
KBRD 061129Z 0612/0712 19006KT 5SM BR SCT020 BKN100
      TEMPO 0612/0615 5SM BR BKN015
     FM061800 19014KT P6SM SCT025 OVC080
     FM062200 20014KT P6SM SCT015 OVC040
      TEMPO 0622/0702 2SM -SN BKN012
     FM070200 22014KT P6SM VCSH OVC012
     FM071000 24014KT 6SM -SN OVC012=



000
FTUS43 KDLH 061046 AAA
TAFINL
TAF AMD
KINL 061046Z 0611/0706 25007KT P6SM SCT015 OVC070
      TEMPO 0611/0613 5SM -SN BR OVC015
     FM061300 14007KT 5SM -SN OVC015
     FM062000 15008KT 1SM -SN OVC012=



000
FTUS43 KDLH 061046 AAA
TAFINL
TAF AMD
KINL 061046Z 0611/0706 25007KT P6SM SCT015 OVC070
      TEMPO 0611/0613 5SM -SN BR OVC015
     FM061300 14007KT 5SM -SN OVC015
     FM062000 15008KT 1SM -SN OVC012=



000
FTUS43 KDLH 061045 AAA
TAFBRD
TAF AMD
KBRD 061045Z 0611/0706 20007KT P6SM SCT008 BKN060
      TEMPO 0611/0613 5SM BR BKN006
     FM062000 20011G18KT 5SM -FZDZSN BKN050
     FM070100 23014KT P6SM BKN100=



000
FTUS43 KDLH 061045 AAA
TAFBRD
TAF AMD
KBRD 061045Z 0611/0706 20007KT P6SM SCT008 BKN060
      TEMPO 0611/0613 5SM BR BKN006
     FM062000 20011G18KT 5SM -FZDZSN BKN050
     FM070100 23014KT P6SM BKN100=



000
FTUS43 KDLH 061044 AAC
TAFDLH
TAF AMD
KDLH 061044Z 0611/0706 25008KT P6SM SCT020 BKN080
     FM062300 20012G20KT 2SM -SN OVC015
      TEMPO 0700/0704 3/4SM -SN OVC008
     FM070500 22014KT 5SM -SN BR OVC012=



000
FTUS43 KDLH 060829 AAB
TAFDLH
TAF AMD
KDLH 060829Z 0608/0706 26008KT P6SM SCT020 BKN060
      TEMPO 0608/0612 BKN025
     FM061600 22012KT P6SM SCT025 BKN050
     FM062300 20012G20KT 2SM -SN OVC015
      TEMPO 0700/0704 3/4SM -SN OVC008
     FM070500 22014KT 5SM -SN BR OVC012=



000
FTUS43 KDLH 060829 AAB
TAFDLH
TAF AMD
KDLH 060829Z 0608/0706 26008KT P6SM SCT020 BKN060
      TEMPO 0608/0612 BKN025
     FM061600 22012KT P6SM SCT025 BKN050
     FM062300 20012G20KT 2SM -SN OVC015
      TEMPO 0700/0704 3/4SM -SN OVC008
     FM070500 22014KT 5SM -SN BR OVC012=



000
FTUS43 KDLH 060822 AAA
TAFHYR
TAF AMD
KHYR 060822Z 0608/0706 23002KT P6SM SCT007 OVC020
      TEMPO 0608/0612 4SM BR OVC009
     FM061200 20006KT P6SM BKN025
     FM061800 19008G16KT P6SM SCT025 BKN060
     FM070000 19012KT 6SM -SN SCT010 OVC030=



000
FTUS43 KDLH 060537
TAFDLH
TAF
KDLH 060537Z 0606/0706 25011KT P6SM OVC025
     FM060800 25011KT P6SM SCT025 BKN080
     FM061600 19013KT P6SM VCSH BKN025
     FM062300 20014G20KT 1 1/2SM -SN OVC015
     FM070400 23014KT 6SM -SN SCT015 BKN050=



000
FTUS43 KDLH 060537
TAFBRD
TAF
KBRD 060537Z 0606/0706 25008KT P6SM OVC015
     FM060800 20007KT P6SM SCT015 BKN070
     FM062000 20011G18KT 5SM -FZDZSN BKN050
     FM070100 23014KT P6SM BKN100=



000
FTUS43 KDLH 060537
TAFINL
TAF
KINL 060537Z 0606/0706 25007KT P6SM OVC070
     FM061400 14007KT 5SM -SN OVC015
     FM062000 15008KT 1SM -SN OVC012=



000
FTUS43 KDLH 060537
TAFHYR
TAF
KHYR 060537Z 0606/0706 21006KT P6SM OVC015
     FM060800 23002KT P6SM FEW015 BKN100
     FM062100 19009G15KT P6SM BKN050
     FM070200 21008KT 6SM -SN OVC025=



000
FTUS43 KDLH 060537
TAFDLH
TAF
KDLH 060537Z 0606/0706 25011KT P6SM OVC025
     FM060800 25011KT P6SM SCT025 BKN080
     FM061600 19013KT P6SM VCSH BKN025
     FM062300 20014G20KT 1 1/2SM -SN OVC015
     FM070400 23014KT 6SM -SN SCT015 BKN050=



000
FTUS43 KDLH 060537
TAFHYR
TAF
KHYR 060537Z 0606/0706 21006KT P6SM OVC015
     FM060800 23002KT P6SM FEW015 BKN100
     FM062100 19009G15KT P6SM BKN050
     FM070200 21008KT 6SM -SN OVC025=



000
FTUS43 KDLH 060537
TAFINL
TAF
KINL 060537Z 0606/0706 25007KT P6SM OVC070
     FM061400 14007KT 5SM -SN OVC015
     FM062000 15008KT 1SM -SN OVC012=



000
FTUS43 KDLH 060537
TAFBRD
TAF
KBRD 060537Z 0606/0706 25008KT P6SM OVC015
     FM060800 20007KT P6SM SCT015 BKN070
     FM062000 20011G18KT 5SM -FZDZSN BKN050
     FM070100 23014KT P6SM BKN100=



000
FTUS43 KDLH 060304 AAB
TAFDLH
TAF AMD
KDLH 060304Z 0603/0624 25009KT P6SM OVC025
     FM062100 19013KT 4SM -SN OVC025=



000
FTUS43 KDLH 060215 AAA
TAFHYR
TAF AMD
KHYR 060215Z 0602/0624 19014KT P6SM OVC021
     FM060400 21005KT P6SM -SN OVC025
     FM060800 23002KT P6SM FEW015 BKN100
     FM062100 19009G15KT P6SM BKN050=



000
FTUS43 KDLH 060214 AAA
TAFBRD
TAF AMD
KBRD 060214Z 0602/0624 22005KT P6SM OVC019
     FM062000 20011G18KT P6SM BKN050=



    US Dept of Commerce
    National Oceanic and Atmospheric Administration
    National Weather Service
    1325 East West Highway
    Silver Spring, MD 20910
    Page Author: NWS Internet Services Team
Disclaimer
Information Quality
Credits
Glossary
Privacy Policy
Freedom of Information Act (FOIA)
About Us
Career Opportunities